Cheyenne Regional Jerry Olson Field
KCYS : now visible

Airfield :











YOU CAN JOIN US ON...

 
LOGIN :

Register | Disclaimer

   EN    FR    IT 

 









Legend :    VFR   Marginal VFR   IFR   Intensive IFR   Very Intensive IFR
Visi :
Ceiling :
>= 8 km
>= 3000ft
5 to 8 km
1000 to 3000 ft
1500m to 5 km
500 to 1000 ft
800 to 1500m
200 to 500 ft
< 800m
< 200 ft
Symbols :   Thunderstorms  Fog  Heavy snow  Heavy precipitations  Wind > 20 kt







- Airport Elevation : 6159 ft
- IATA code : CYS


KCYS - Cheyenne Regional Jerry Olson Field

CURRENT METAR :
  • 222353Z 11014G23KT 10SM CLR 23/06 A3001 RMK AO2 SLP078 60000 T02330061 10283 20228 58005

EXPIRED METARs :
  • 222253Z 30005KT 10SM SCT110 23/05 A3002 RMK AO2 LTG DSNT E RAB01E30 TSE08 SLP080 P0000 T02330050
  • 222233Z 26012G21KT 10SM SCT090 BKN110 23/06 A3004 RMK AO2 LTG DSNT N-E RAB01E30 TSE08 P0000 T02330056
  • 222214Z 27011KT 10SM VCTS -RA SCT090 OVC110 24/11 A3005 RMK AO2 LTG DSNT ALQDS RAB01 TSE08 P0000 T02390111
  • 222153Z 23008KT 10SM TS SCT090 BKN110 24/11 A3003 RMK AO2 LTG DSNT ALQDS TSB46 SLP080 T02440111
  • 222137Z 19005KT 10SM VCTS FEW085 SCT120 24/11 A3004 RMK AO2 LTG DSNT W AND NW T02440111

TAF KCYS
Valid from the 23 at 00:00 until the 24 at 00:00 UTC


222350Z 2300/2324 09008G15KT P6SM SCT060 BKN250
FM230100 22010KT P6SM VCSH SCT050 BKN100
FM230500 24008KT P6SM SCT250
FM231400 32006KT P6SM SCT250
No reported NOTAMs for that airfield.



MET'MAP, your aeronautical weather chart ! - Copyright ORBIFLY December 2007 - Disclaimer

ORBIFLY MET'MAP TEAM :

Programming & Development : Alexandra Zaïnal
Concept & Development : Baudouin d'Aumeries
Co-Development & Prog : Marc-Olivier Méhu
Technical & hardware support : Manuel Goepfert

Contact : metmap@orbifly.com




SOURCES & CREDITS :

   NOAA       Earth
Advisory